Terminal Aerodrome Forecast
Issued by NWS Denver/Boulder, CO

Home | Current Version | Previous Version | Text Only | Print | Product List | Glossary On
Versions: 1 2 3 4 5 6 7 8 9 10 11 12 13 14 15 16 17 18 19 20 21 22 23 24 25 26 27 28 29 30 31 32 33 34 35 36 37 38 39 40 41 42 43 44 45 46 47 48 49 50
000
FTUS45 KBOU 220855 AAA
TAFDEN
TAF AMD
KDEN 220855Z 2209/2312 19014KT P6SM SCT080 BKN120
     FM221400 22010KT P6SM SCT060 BKN110
      TEMPO 2215/2219 -SHRA BKN060
     FM221900 36007KT P6SM SCT070 BKN100 PROB30 2219/2301 VRB18G30KT
      -TSRA BKN060CB
     FM230100 33008KT P6SM SCT060 BKN100
     FM230400 23008KT P6SM FEW060 SCT100=

USA.gov is the U.S. government's official web portal to all federal, state and local government web resources and services.